createdAt,value
2022-07-29T00:00:14.680Z,4.35
2022-07-29T00:02:41.637Z,4.88
2022-07-29T00:05:09.876Z,4.88
2022-07-29T00:07:36.620Z,4.65
2022-07-29T00:10:04.045Z,4.82
2022-07-29T00:12:30.835Z,5.22
2022-07-29T00:14:59.178Z,4.90
2022-07-29T00:17:26.219Z,2.83
2022-07-29T00:19:53.377Z,6.88
2022-07-29T00:22:21.224Z,4.95
2022-07-29T00:24:51.113Z,4.32
2022-07-29T00:27:18.516Z,3.78
2022-07-29T00:29:45.491Z,3.17
2022-07-29T00:32:12.180Z,6.78
2022-07-29T00:34:57.285Z,6.85
2022-07-29T00:37:24.119Z,3.58
2022-07-29T00:39:51.238Z,4.43
2022-07-29T00:42:18.425Z,2.42
2022-07-29T00:44:45.186Z,5.65
2022-07-29T00:47:12.818Z,5.00
2022-07-29T00:49:41.943Z,3.03
2022-07-29T00:52:10.379Z,5.38
2022-07-29T00:54:43.909Z,4.68
2022-07-29T00:57:11.908Z,4.07
2022-07-29T00:59:38.654Z,3.75
2022-07-29T01:02:05.745Z,4.38
2022-07-29T01:04:33.338Z,4.82
2022-07-29T01:07:02.493Z,6.07
2022-07-29T01:09:42.252Z,4.68
2022-07-29T01:12:19.598Z,6.47
2022-07-29T01:14:47.657Z,3.42
2022-07-29T01:17:30.116Z,3.83
2022-07-29T01:20:19.584Z,2.85
2022-07-29T01:23:07.320Z,6.75
2022-07-29T01:25:39.853Z,2.65
2022-07-29T01:28:33.452Z,4.38
2022-07-29T01:31:02.587Z,6.60
2022-07-29T01:33:50.493Z,6.07
2022-07-29T01:36:44.684Z,4.90
2022-07-29T01:39:19.694Z,7.30
2022-07-29T01:41:57.618Z,5.53
2022-07-29T01:44:33.790Z,4.20
2022-07-29T01:47:07.240Z,13.35
2022-07-29T01:49:40.323Z,4.53
2022-07-29T01:52:16.615Z,4.18
2022-07-29T01:54:58.147Z,4.25
2022-07-29T01:57:31.638Z,6.32
2022-07-29T02:00:01.136Z,7.18
2022-07-29T02:02:30.380Z,6.78
2022-07-29T02:04:58.135Z,4.70
2022-07-29T02:07:28.608Z,4.03
2022-07-29T02:09:56.785Z,5.68
2022-07-29T02:12:24.861Z,2.95
2022-07-29T02:14:53.752Z,5.63
2022-07-29T02:17:34.525Z,4.10
2022-07-29T02:20:06.531Z,4.35
2022-07-29T02:22:38.166Z,4.10
2022-07-29T02:25:06.373Z,5.35
2022-07-29T02:27:42.124Z,6.43
2022-07-29T02:30:11.064Z,3.72
2022-07-29T02:32:40.553Z,5.18
2022-07-29T02:35:09.586Z,3.67
2022-07-29T02:37:38.361Z,5.20
2022-07-29T02:40:06.865Z,5.75
2022-07-29T02:42:35.562Z,8.43
2022-07-29T02:45:02.272Z,4.95
2022-07-29T02:50:30.681Z,4.70
2022-07-29T02:53:03.125Z,5.13
2022-07-29T02:55:45.745Z,2.80
2022-07-29T02:58:35.339Z,5.70
2022-07-29T03:01:19.348Z,5.03
2022-07-29T03:03:50.230Z,5.03
2022-07-29T03:06:28.115Z,5.40
2022-07-29T03:09:10.440Z,4.97
2022-07-29T03:11:49.376Z,3.97
2022-07-29T03:14:21.562Z,5.15
2022-07-29T03:16:49.194Z,7.78
2022-07-29T03:19:17.157Z,5.55
2022-07-29T03:21:43.953Z,6.68
2022-07-29T03:24:11.152Z,4.75
2022-07-29T03:26:38.333Z,7.38
2022-07-29T03:29:05.104Z,4.80
2022-07-29T03:31:32.497Z,8.20
2022-07-29T03:34:00.353Z,4.45
2022-07-29T03:38:54.219Z,4.72
2022-07-29T03:41:25.136Z,5.63
2022-07-29T03:43:53.856Z,5.22
2022-07-29T03:46:23.652Z,10.73
2022-07-29T03:48:53.820Z,9.23
2022-07-29T03:51:33.885Z,5.82
2022-07-29T03:54:07.681Z,7.97
2022-07-29T03:56:41.315Z,8.48
2022-07-29T03:59:08.740Z,7.75
2022-07-29T04:01:36.612Z,7.15
2022-07-29T04:04:05.512Z,5.63
2022-07-29T04:06:43.235Z,6.88
2022-07-29T04:09:10.620Z,7.78
2022-07-29T04:11:59.812Z,7.53
2022-07-29T04:14:26.291Z,8.45
2022-07-29T04:16:53.948Z,11.07
2022-07-29T04:19:20.623Z,6.63
2022-07-29T04:24:14.218Z,9.95
2022-07-29T04:26:41.312Z,8.73
2022-07-29T04:29:07.984Z,7.50
2022-07-29T04:31:34.928Z,9.15
2022-07-29T04:34:01.708Z,7.45
2022-07-29T04:38:56.942Z,4.30
2022-07-29T04:41:23.614Z,6.88
2022-07-29T04:44:01.754Z,6.97
2022-07-29T04:46:28.612Z,4.40
2022-07-29T04:48:55.442Z,9.05
2022-07-29T04:51:22.182Z,6.75
2022-07-29T04:56:15.565Z,7.35
2022-07-29T05:01:09.070Z,7.75
2022-07-29T05:03:35.871Z,9.07
2022-07-29T05:08:29.168Z,8.05
2022-07-29T05:13:22.485Z,6.53
2022-07-29T05:18:16.012Z,4.13
2022-07-29T05:20:43.046Z,5.63
2022-07-29T05:23:10.120Z,6.28
2022-07-29T05:25:43.281Z,6.80
2022-07-29T05:28:12.043Z,11.43
2022-07-29T05:30:39.214Z,8.90
2022-07-29T05:33:05.920Z,8.07
2022-07-29T05:37:59.240Z,8.52
2022-07-29T05:42:52.831Z,8.68
2022-07-29T05:45:19.546Z,7.68
2022-07-29T05:50:13.527Z,7.05
2022-07-29T05:52:40.453Z,5.15
2022-07-29T05:55:07.536Z,6.65
2022-07-29T05:57:34.269Z,7.72
2022-07-29T06:02:27.674Z,4.75
2022-07-29T06:04:54.769Z,5.50
2022-07-29T06:07:21.783Z,6.63
2022-07-29T06:09:48.643Z,6.65
2022-07-29T06:12:15.812Z,8.48
2022-07-29T06:14:42.505Z,4.45
2022-07-29T06:19:37.202Z,5.40
2022-07-29T06:22:04.343Z,5.90
2022-07-29T06:24:31.645Z,5.85
2022-07-29T06:26:58.438Z,9.38
2022-07-29T06:29:25.130Z,7.93
2022-07-29T06:34:18.850Z,6.30
2022-07-29T06:36:47.090Z,8.82
2022-07-29T06:39:14.579Z,5.78
2022-07-29T06:41:41.667Z,6.28
2022-07-29T06:44:11.073Z,6.03
2022-07-29T06:49:05.474Z,7.82
2022-07-29T06:51:32.266Z,8.57
2022-07-29T06:56:39.364Z,5.35
2022-07-29T06:59:11.545Z,7.03
2022-07-29T07:01:40.270Z,8.20
2022-07-29T07:04:07.616Z,5.45
2022-07-29T07:06:34.330Z,5.15
2022-07-29T07:11:28.257Z,8.75
2022-07-29T07:13:59.255Z,6.72
2022-07-29T07:16:29.260Z,5.75
2022-07-29T07:18:55.994Z,5.65
2022-07-29T07:23:49.456Z,6.35
2022-07-29T07:26:16.460Z,6.45
2022-07-29T07:28:43.142Z,6.28
2022-07-29T07:33:37.195Z,6.63
2022-07-29T07:36:04.117Z,9.15
2022-07-29T07:38:30.880Z,5.95
2022-07-29T07:40:57.561Z,6.82
2022-07-29T07:43:24.353Z,5.38
2022-07-29T07:45:51.080Z,7.55
2022-07-29T07:48:18.151Z,6.53
2022-07-29T07:50:44.986Z,8.15
2022-07-29T07:53:11.822Z,7.65
2022-07-29T07:58:29.204Z,5.82
2022-07-29T08:00:55.916Z,4.93
2022-07-29T08:03:22.681Z,6.03
2022-07-29T08:05:51.596Z,6.35
2022-07-29T08:08:18.732Z,5.53
2022-07-29T08:10:54.316Z,7.18
2022-07-29T08:13:23.122Z,7.60
2022-07-29T08:15:58.626Z,7.22
2022-07-29T08:18:27.130Z,8.38
2022-07-29T08:20:54.119Z,8.20
2022-07-29T08:23:20.947Z,7.28
2022-07-29T08:25:50.072Z,6.80
2022-07-29T08:28:18.129Z,5.63
2022-07-29T08:30:44.944Z,10.23
2022-07-29T08:33:12.070Z,6.60
2022-07-29T08:35:40.155Z,8.25
2022-07-29T08:38:06.849Z,9.43
2022-07-29T08:40:33.665Z,8.27
2022-07-29T08:43:06.579Z,7.03
2022-07-29T08:45:49.754Z,7.30
2022-07-29T08:48:19.023Z,7.90
2022-07-29T08:50:47.129Z,8.43
2022-07-29T08:53:18.663Z,8.20
2022-07-29T08:55:47.575Z,6.95
2022-07-29T08:58:15.577Z,7.65
2022-07-29T09:00:46.040Z,6.90
2022-07-29T09:03:20.859Z,9.27
2022-07-29T09:05:48.536Z,6.45
2022-07-29T09:08:16.358Z,8.40
2022-07-29T09:10:43.643Z,7.20
2022-07-29T09:13:10.364Z,6.85
2022-07-29T09:15:37.208Z,6.57
2022-07-29T09:18:04.008Z,5.80
2022-07-29T09:20:50.687Z,9.60
2022-07-29T09:23:23.143Z,7.05
2022-07-29T09:25:51.660Z,10.18
2022-07-29T09:28:18.984Z,10.63
2022-07-29T09:30:55.941Z,11.27
2022-07-29T09:33:23.826Z,6.90
2022-07-29T09:36:04.190Z,7.43
2022-07-29T09:38:33.086Z,9.73
2022-07-29T09:41:05.992Z,8.48
2022-07-29T09:43:33.585Z,11.07
2022-07-29T09:46:13.780Z,8.23
2022-07-29T09:48:40.770Z,7.47
2022-07-29T09:51:21.311Z,10.30
2022-07-29T09:53:49.017Z,7.70
2022-07-29T09:56:15.803Z,9.35
2022-07-29T09:58:42.502Z,8.40
2022-07-29T10:01:09.372Z,9.55
2022-07-29T10:03:54.732Z,8.25
2022-07-29T10:06:21.525Z,10.02
2022-07-29T10:08:48.372Z,11.48
2022-07-29T10:11:17.939Z,8.73
2022-07-29T10:13:46.492Z,9.45
2022-07-29T10:16:14.244Z,7.85
2022-07-29T10:18:42.575Z,10.93
2022-07-29T10:21:10.439Z,8.73
2022-07-29T10:23:46.769Z,8.93
2022-07-29T10:26:15.411Z,6.95
2022-07-29T10:28:42.140Z,9.25
2022-07-29T10:31:19.405Z,10.07
2022-07-29T10:34:24.155Z,7.78
2022-07-29T10:37:07.989Z,10.70
2022-07-29T10:39:44.673Z,8.52
2022-07-29T10:42:29.535Z,6.85
2022-07-29T10:45:00.302Z,10.73
2022-07-29T10:47:27.840Z,9.40
2022-07-29T10:50:02.073Z,8.40
2022-07-29T10:52:47.542Z,7.25
2022-07-29T10:55:43.164Z,9.95
2022-07-29T10:58:18.931Z,7.05
2022-07-29T11:00:48.036Z,8.20
2022-07-29T11:03:50.385Z,7.95
2022-07-29T11:06:18.157Z,10.10
2022-07-29T11:09:20.206Z,8.65
2022-07-29T11:11:52.366Z,9.80
2022-07-29T11:14:58.525Z,8.00
2022-07-29T11:17:25.267Z,7.20
2022-07-29T11:19:52.640Z,9.23
2022-07-29T11:22:36.665Z,10.38
2022-07-29T11:25:17.068Z,9.63
2022-07-29T11:27:45.945Z,9.82
2022-07-29T11:30:13.327Z,7.72
2022-07-29T11:32:44.799Z,8.90
2022-07-29T11:35:17.732Z,7.88
2022-07-29T11:38:08.041Z,10.90
2022-07-29T11:40:34.789Z,7.30
2022-07-29T11:43:02.776Z,8.65
2022-07-29T11:45:47.938Z,9.68
2022-07-29T11:48:29.367Z,8.38
2022-07-29T11:51:00.092Z,11.30
2022-07-29T11:53:29.020Z,9.68
2022-07-29T11:56:00.880Z,8.73
2022-07-29T11:58:29.314Z,11.80
2022-07-29T12:03:44.841Z,7.22
2022-07-29T12:07:02.432Z,7.65
2022-07-29T12:07:02.573Z,7.45
2022-07-29T12:09:08.676Z,9.27
2022-07-29T12:14:08.183Z,7.53
2022-07-29T12:16:38.587Z,7.85
2022-07-29T12:19:05.823Z,9.73
2022-07-29T12:21:50.987Z,11.63
2022-07-29T12:24:23.372Z,9.68
2022-07-29T12:26:55.593Z,9.05
2022-07-29T12:29:33.623Z,8.55
2022-07-29T12:32:01.140Z,8.45
2022-07-29T12:34:30.326Z,11.18
2022-07-29T12:36:57.194Z,10.93
2022-07-29T12:39:27.285Z,9.13
2022-07-29T12:42:03.848Z,10.07
2022-07-29T12:44:51.149Z,7.53
2022-07-29T12:47:19.804Z,6.63
2022-07-29T12:49:47.741Z,7.32
2022-07-29T12:52:31.123Z,6.00
2022-07-29T12:54:58.598Z,7.13
2022-07-29T12:57:26.004Z,7.85
2022-07-29T13:00:06.011Z,6.25
2022-07-29T13:02:32.951Z,7.78
2022-07-29T13:05:01.256Z,8.05
2022-07-29T13:07:54.226Z,7.63
2022-07-29T13:10:24.314Z,9.80
2022-07-29T13:13:03.680Z,6.63
2022-07-29T13:15:32.344Z,7.57
2022-07-29T13:17:59.535Z,9.20
2022-07-29T13:20:30.731Z,4.30
2022-07-29T13:22:59.710Z,6.47
2022-07-29T13:25:31.473Z,8.15
2022-07-29T13:28:00.157Z,10.82
2022-07-29T13:30:26.946Z,9.15
2022-07-29T13:32:53.971Z,7.03
2022-07-29T13:35:21.287Z,7.25
2022-07-29T13:37:48.484Z,9.10
2022-07-29T13:40:15.218Z,6.68
2022-07-29T13:42:42.382Z,9.07
2022-07-29T13:45:10.543Z,8.77
2022-07-29T13:47:37.759Z,7.63
2022-07-29T13:50:06.841Z,10.35
2022-07-29T13:52:34.438Z,8.48
2022-07-29T13:55:02.256Z,11.05
2022-07-29T13:57:29.711Z,10.10
2022-07-29T13:59:57.044Z,6.10
2022-07-29T14:02:25.623Z,6.97
2022-07-29T14:04:54.360Z,6.43
2022-07-29T14:07:21.313Z,6.95
2022-07-29T14:09:48.014Z,11.30
2022-07-29T14:12:14.762Z,5.57
2022-07-29T14:14:42.385Z,11.80
2022-07-29T14:17:09.957Z,8.95
2022-07-29T14:19:38.594Z,6.68
2022-07-29T14:22:06.628Z,7.30
2022-07-29T14:24:33.946Z,9.15
2022-07-29T14:27:04.440Z,5.95
2022-07-29T14:29:37.114Z,10.15
2022-07-29T14:32:09.117Z,7.95
2022-07-29T14:34:37.077Z,5.03
2022-07-29T14:37:06.339Z,9.82
2022-07-29T14:39:33.441Z,6.40
2022-07-29T14:42:00.803Z,5.75
2022-07-29T14:44:32.116Z,15.13
2022-07-29T14:47:00.666Z,6.43
2022-07-29T14:49:30.572Z,5.07
2022-07-29T14:51:57.741Z,8.15
2022-07-29T14:54:24.709Z,6.28
2022-07-29T14:56:51.914Z,5.32
2022-07-29T14:59:18.736Z,7.38
2022-07-29T15:01:45.483Z,7.95
2022-07-29T15:04:12.243Z,7.07
2022-07-29T15:06:45.765Z,5.82
2022-07-29T15:09:12.802Z,6.85
2022-07-29T15:11:39.526Z,6.93
2022-07-29T15:14:07.045Z,5.47
2022-07-29T15:16:36.283Z,8.02
2022-07-29T15:19:03.387Z,6.25
2022-07-29T15:21:30.235Z,9.98
2022-07-29T15:23:57.115Z,7.00
2022-07-29T15:26:24.296Z,5.45
2022-07-29T15:28:51.028Z,6.07
2022-07-29T15:31:19.618Z,8.60
2022-07-29T15:33:46.368Z,7.00
2022-07-29T15:36:25.474Z,6.80
2022-07-29T15:39:00.137Z,8.88
2022-07-29T15:41:26.963Z,4.50
2022-07-29T15:43:53.820Z,6.70
2022-07-29T15:46:39.426Z,5.07
2022-07-29T15:49:07.119Z,4.80
2022-07-29T15:51:36.399Z,5.53
2022-07-29T15:54:04.255Z,7.20
2022-07-29T15:56:31.759Z,5.93
2022-07-29T15:58:59.037Z,6.28
2022-07-29T16:01:25.855Z,5.00
2022-07-29T16:03:53.363Z,5.30
2022-07-29T16:06:22.516Z,6.75
2022-07-29T16:08:49.228Z,6.38
2022-07-29T16:11:18.149Z,5.03
2022-07-29T16:13:44.851Z,4.68
2022-07-29T16:16:13.097Z,6.35
2022-07-29T16:18:39.830Z,4.47
2022-07-29T16:21:09.532Z,5.75
2022-07-29T16:23:36.206Z,8.00
2022-07-29T16:26:02.923Z,6.68
2022-07-29T16:28:30.603Z,5.60
2022-07-29T16:30:57.820Z,6.05
2022-07-29T16:33:24.938Z,7.03
2022-07-29T16:35:52.456Z,5.00
2022-07-29T16:38:19.277Z,4.13
2022-07-29T16:40:46.077Z,9.98
2022-07-29T16:43:12.764Z,8.05
2022-07-29T16:45:46.032Z,5.07
2022-07-29T16:48:14.871Z,5.50
2022-07-29T16:50:43.333Z,5.82
2022-07-29T16:53:11.011Z,5.13
2022-07-29T16:55:37.943Z,5.28
2022-07-29T16:58:05.310Z,7.95
2022-07-29T17:00:32.434Z,10.88
2022-07-29T17:02:59.977Z,7.30
2022-07-29T17:05:27.742Z,5.35
2022-07-29T17:07:58.392Z,4.70
2022-07-29T17:12:54.503Z,6.07
2022-07-29T17:15:21.320Z,3.63
2022-07-29T17:17:55.554Z,6.38
2022-07-29T17:20:24.105Z,6.03
2022-07-29T17:22:50.826Z,7.15
2022-07-29T17:25:20.441Z,4.70
2022-07-29T17:27:49.413Z,8.13
2022-07-29T17:30:16.512Z,5.32
2022-07-29T17:32:43.204Z,6.70
2022-07-29T17:35:28.799Z,4.75
2022-07-29T17:37:55.986Z,7.60
2022-07-29T17:40:23.111Z,6.32
2022-07-29T17:42:50.093Z,4.15
2022-07-29T17:45:16.942Z,7.32
2022-07-29T17:47:44.944Z,6.32
2022-07-29T17:50:11.682Z,5.82
2022-07-29T17:52:39.085Z,7.82
2022-07-29T17:55:06.865Z,8.48
2022-07-29T17:57:34.043Z,6.03
2022-07-29T18:00:00.757Z,5.95
2022-07-29T18:02:28.503Z,8.27
2022-07-29T18:04:55.448Z,5.93
2022-07-29T18:07:22.180Z,3.80
2022-07-29T18:09:48.853Z,7.45
2022-07-29T18:12:15.883Z,5.78
2022-07-29T18:14:42.585Z,6.95
2022-07-29T18:17:11.613Z,7.78
2022-07-29T18:19:38.343Z,8.13
2022-07-29T18:22:07.320Z,4.78
2022-07-29T18:24:34.867Z,8.02
2022-07-29T18:27:01.963Z,8.35
2022-07-29T18:29:30.263Z,4.68
2022-07-29T18:31:58.812Z,8.15
2022-07-29T18:34:32.904Z,10.70
2022-07-29T18:37:00.270Z,8.70
2022-07-29T18:39:29.989Z,8.60
2022-07-29T18:41:56.777Z,9.20
2022-07-29T18:44:23.573Z,9.80
2022-07-29T18:46:51.794Z,10.55
2022-07-29T18:49:18.978Z,6.97
2022-07-29T18:51:45.696Z,7.88
2022-07-29T18:54:12.410Z,8.55
2022-07-29T18:56:39.116Z,9.38
2022-07-29T18:59:06.035Z,8.15
2022-07-29T19:01:32.901Z,9.60
2022-07-29T19:04:00.157Z,9.63
2022-07-29T19:06:30.119Z,6.72
2022-07-29T19:08:57.060Z,7.97
2022-07-29T19:11:25.942Z,8.85
2022-07-29T19:13:52.714Z,9.65
2022-07-29T19:16:19.438Z,11.38
2022-07-29T19:18:47.290Z,10.13
2022-07-29T19:21:13.982Z,10.10
2022-07-29T19:24:02.451Z,7.65
2022-07-29T19:26:29.008Z,9.07
2022-07-29T19:28:58.013Z,9.18
2022-07-29T19:31:24.777Z,7.80
2022-07-29T19:33:51.568Z,9.18
2022-07-29T19:36:20.812Z,9.82
2022-07-29T19:38:47.558Z,9.90
2022-07-29T19:41:15.729Z,12.38
2022-07-29T19:43:50.915Z,9.30
2022-07-29T19:46:20.396Z,9.48
2022-07-29T19:48:47.294Z,9.57
2022-07-29T19:51:17.458Z,12.95
2022-07-29T19:53:44.275Z,9.70
2022-07-29T19:56:10.969Z,7.93
2022-07-29T19:58:37.659Z,11.30
2022-07-29T20:01:10.011Z,9.40
2022-07-29T20:03:39.693Z,10.82
2022-07-29T20:06:07.405Z,9.35
2022-07-29T20:08:34.345Z,7.32
2022-07-29T20:11:01.159Z,11.43
2022-07-29T20:13:32.972Z,9.45
2022-07-29T20:16:01.074Z,13.90
2022-07-29T20:18:30.381Z,12.88
2022-07-29T20:20:57.557Z,12.82
2022-07-29T20:23:33.436Z,13.52
2022-07-29T20:26:00.555Z,11.23
2022-07-29T20:28:27.565Z,10.10
2022-07-29T20:30:54.376Z,11.65
2022-07-29T20:33:28.447Z,7.65
2022-07-29T20:36:00.495Z,11.55
2022-07-29T20:38:28.411Z,11.52
2022-07-29T20:40:58.460Z,7.97
2022-07-29T20:43:26.103Z,11.82
2022-07-29T20:45:52.916Z,9.40
2022-07-29T20:48:19.661Z,12.13
2022-07-29T20:50:48.655Z,10.98
2022-07-29T20:53:16.649Z,11.50
2022-07-29T20:55:43.486Z,11.68
2022-07-29T20:58:10.342Z,11.88
2022-07-29T21:00:37.421Z,15.13
2022-07-29T21:03:04.221Z,8.93
2022-07-29T21:05:31.649Z,11.48
2022-07-29T21:08:01.149Z,10.73
2022-07-29T21:10:29.887Z,9.52
2022-07-29T21:12:58.771Z,11.85
2022-07-29T21:15:27.486Z,8.25
2022-07-29T21:18:00.587Z,10.77
2022-07-29T21:20:27.724Z,11.50
2022-07-29T21:22:57.875Z,13.82
2022-07-29T21:25:25.826Z,11.70
2022-07-29T21:28:10.929Z,9.75
2022-07-29T21:30:37.712Z,10.32
2022-07-29T21:33:04.701Z,13.32
2022-07-29T21:36:01.780Z,11.70
2022-07-29T21:38:19.152Z,11.52
2022-07-29T21:40:47.615Z,9.45
2022-07-29T21:43:15.434Z,12.23
2022-07-29T21:45:43.699Z,11.93
2022-07-29T21:48:10.418Z,10.82
2022-07-29T21:50:37.063Z,14.23
2022-07-29T21:53:03.733Z,15.68
2022-07-29T21:55:32.463Z,12.00
2022-07-29T21:57:59.353Z,12.52
2022-07-29T22:00:26.161Z,11.32
2022-07-29T22:02:53.461Z,11.23
2022-07-29T22:05:20.670Z,14.15
2022-07-29T22:07:56.282Z,10.18
2022-07-29T22:10:25.798Z,11.00
2022-07-29T22:12:54.443Z,10.63
2022-07-29T22:15:21.487Z,13.10
2022-07-29T22:17:48.329Z,8.27
2022-07-29T22:20:15.074Z,9.60
2022-07-29T22:22:42.064Z,10.55
2022-07-29T22:25:09.410Z,11.23
2022-07-29T22:27:36.994Z,13.73
2022-07-29T22:30:05.874Z,10.80
2022-07-29T22:32:32.978Z,10.85
2022-07-29T22:34:59.718Z,11.23
2022-07-29T22:37:26.418Z,8.57
2022-07-29T22:39:53.105Z,13.52
2022-07-29T22:42:19.864Z,8.02
2022-07-29T22:44:46.589Z,10.88
2022-07-29T22:47:13.314Z,11.73
2022-07-29T22:49:40.045Z,12.60
2022-07-29T22:52:06.791Z,11.80
2022-07-29T22:54:33.465Z,10.90
2022-07-29T22:57:01.299Z,11.65
2022-07-29T22:59:28.387Z,7.78
2022-07-29T23:01:55.127Z,8.60
2022-07-29T23:04:23.617Z,9.65
2022-07-29T23:06:51.051Z,11.77
2022-07-29T23:09:17.786Z,12.48
2022-07-29T23:11:44.566Z,10.30
2022-07-29T23:14:11.406Z,10.60
2022-07-29T23:16:38.199Z,12.35
2022-07-29T23:19:05.140Z,12.10
2022-07-29T23:21:31.817Z,9.52
2022-07-29T23:23:58.552Z,9.93
2022-07-29T23:26:25.247Z,10.02
2022-07-29T23:28:52.006Z,10.73
2022-07-29T23:31:18.913Z,10.10
2022-07-29T23:33:45.706Z,8.85
2022-07-29T23:36:12.413Z,9.18
2022-07-29T23:38:40.852Z,11.45
2022-07-29T23:41:09.640Z,12.93
2022-07-29T23:43:37.315Z,8.32
2022-07-29T23:46:04.171Z,12.68
2022-07-29T23:48:31.895Z,9.05
2022-07-29T23:51:00.347Z,10.80
2022-07-29T23:53:27.965Z,11.75
2022-07-29T23:55:55.147Z,10.23
2022-07-29T23:58:21.806Z,12.65
